N808EH KFNL-KDEN
Flight info
| Callsign | N808EH |
|---|---|
| Flight time | 0h 24m |
| Altitude | VFR |
| Route | /FF/ |
| Aircraft | P28A/L-DOV/C |
Departure
| Time | 2026-05-07 02:57 |
|---|---|
| Airport | Northern Colorado Regional Airport (KFNL) |
Arrival
| Time | 2026-05-07 03:21 |
|---|---|
| Airport | Denver International Airport (KDEN) |
| Time | Latitude | Longitude | Altitude | Speed | Heading |
|---|---|---|---|---|---|
| 2026-05-07 02:40 | 40.44622 | -105.00570 | 4999 ft | 0 kts | 12° |
| 2026-05-07 02:41 | 40.44623 | -105.00569 | 4999 ft | 0 kts | 24° |
| 2026-05-07 02:41 | 40.44623 | -105.00558 | 4999 ft | 2 kts | 144° |
| 2026-05-07 02:42 | 40.44621 | -105.00557 | 4999 ft | 0 kts | 174° |
| 2026-05-07 02:42 | 40.44609 | -105.00561 | 4999 ft | 4 kts | 207° |
| 2026-05-07 02:42 | 40.44587 | -105.00615 | 4999 ft | 9 kts | 253° |
| 2026-05-07 02:42 | 40.44560 | -105.00713 | 4999 ft | 13 kts | 252° |
| 2026-05-07 02:43 | 40.44543 | -105.00795 | 4999 ft | 9 kts | 286° |
| 2026-05-07 02:43 | 40.44598 | -105.00831 | 4999 ft | 10 kts | 340° |
| 2026-05-07 02:43 | 40.44666 | -105.00862 | 4999 ft | 11 kts | 340° |
| 2026-05-07 02:43 | 40.44740 | -105.00897 | 4999 ft | 11 kts | 341° |
| 2026-05-07 02:44 | 40.44819 | -105.00933 | 4999 ft | 13 kts | 341° |
| 2026-05-07 02:44 | 40.44889 | -105.00965 | 4999 ft | 11 kts | 340° |
| 2026-05-07 02:44 | 40.44965 | -105.01002 | 4998 ft | 12 kts | 341° |
| 2026-05-07 02:44 | 40.45049 | -105.01040 | 4998 ft | 13 kts | 340° |
| 2026-05-07 02:45 | 40.45137 | -105.01081 | 4998 ft | 14 kts | 340° |
| 2026-05-07 02:45 | 40.45226 | -105.01122 | 4998 ft | 13 kts | 341° |
| 2026-05-07 02:45 | 40.45313 | -105.01163 | 4998 ft | 13 kts | 340° |
| 2026-05-07 02:45 | 40.45395 | -105.01201 | 4998 ft | 12 kts | 340° |
| 2026-05-07 02:46 | 40.45475 | -105.01239 | 4998 ft | 12 kts | 340° |
| 2026-05-07 02:46 | 40.45553 | -105.01275 | 4998 ft | 12 kts | 340° |
| 2026-05-07 02:46 | 40.45630 | -105.01311 | 4998 ft | 12 kts | 336° |
| 2026-05-07 02:46 | 40.45706 | -105.01346 | 4998 ft | 11 kts | 340° |
| 2026-05-07 02:47 | 40.45779 | -105.01380 | 4998 ft | 11 kts | 340° |
| 2026-05-07 02:47 | 40.45850 | -105.01413 | 4998 ft | 11 kts | 340° |
| 2026-05-07 02:47 | 40.45923 | -105.01448 | 4998 ft | 12 kts | 340° |
| 2026-05-07 02:47 | 40.46006 | -105.01486 | 4998 ft | 13 kts | 341° |
| 2026-05-07 02:48 | 40.46097 | -105.01528 | 4997 ft | 15 kts | 340° |
| 2026-05-07 02:48 | 40.46178 | -105.01544 | 4997 ft | 10 kts | 37° |
| 2026-05-07 02:48 | 40.46217 | -105.01532 | 4997 ft | 0 kts | 341° |
| 2026-05-07 02:54 | 40.46233 | -105.01541 | 4997 ft | 5 kts | 335° |
| 2026-05-07 02:54 | 40.46257 | -105.01601 | 4997 ft | 9 kts | 270° |
| 2026-05-07 02:55 | 40.46253 | -105.01626 | 4997 ft | 0 kts | 252° |
| 2026-05-07 02:55 | 40.46247 | -105.01648 | 4997 ft | 5 kts | 250° |
| 2026-05-07 02:55 | 40.46229 | -105.01714 | 4997 ft | 10 kts | 249° |
| 2026-05-07 02:56 | 40.46202 | -105.01730 | 4997 ft | 0 kts | 160° |
| 2026-05-07 02:56 | 40.46098 | -105.01682 | 4997 ft | 38 kts | 161° |
| 2026-05-07 02:56 | 40.45717 | -105.01501 | 5012 ft | 74 kts | 161° |
| 2026-05-07 02:56 | 40.45220 | -105.01252 | 5162 ft | 78 kts | 168° |
| 2026-05-07 02:57 | 40.44703 | -105.01038 | 5319 ft | 77 kts | 169° |
| 2026-05-07 02:57 | 40.44214 | -105.00840 | 5551 ft | 72 kts | 169° |
| 2026-05-07 02:57 | 40.43726 | -105.00636 | 5706 ft | 75 kts | 167° |
| 2026-05-07 02:57 | 40.43229 | -105.00402 | 5877 ft | 78 kts | 159° |
| 2026-05-07 02:58 | 40.42759 | -105.00010 | 6089 ft | 80 kts | 153° |
| 2026-05-07 02:58 | 40.42316 | -104.99534 | 6241 ft | 84 kts | 145° |
| 2026-05-07 02:58 | 40.41872 | -104.99010 | 6367 ft | 87 kts | 145° |
| 2026-05-07 02:58 | 40.41431 | -104.98491 | 6562 ft | 85 kts | 144° |
| 2026-05-07 02:59 | 40.40999 | -104.97967 | 6715 ft | 85 kts | 146° |
| 2026-05-07 02:59 | 40.40551 | -104.97458 | 6856 ft | 84 kts | 147° |
| 2026-05-07 02:59 | 40.40094 | -104.96971 | 6982 ft | 86 kts | 148° |
| 2026-05-07 02:59 | 40.39637 | -104.96450 | 7115 ft | 88 kts | 146° |
| 2026-05-07 03:00 | 40.39168 | -104.95912 | 7231 ft | 91 kts | 146° |
| 2026-05-07 03:00 | 40.38684 | -104.95370 | 7344 ft | 92 kts | 146° |
| 2026-05-07 03:00 | 40.38186 | -104.94850 | 7450 ft | 91 kts | 150° |
| 2026-05-07 03:00 | 40.37663 | -104.94371 | 7535 ft | 93 kts | 150° |
| 2026-05-07 03:01 | 40.37147 | -104.93864 | 7630 ft | 92 kts | 149° |
| 2026-05-07 03:01 | 40.36637 | -104.93359 | 7743 ft | 92 kts | 148° |
| 2026-05-07 03:01 | 40.36121 | -104.92867 | 7842 ft | 92 kts | 151° |
| 2026-05-07 03:01 | 40.35610 | -104.92371 | 7931 ft | 92 kts | 146° |
| 2026-05-07 03:02 | 40.35104 | -104.91833 | 7980 ft | 97 kts | 147° |
| 2026-05-07 03:02 | 40.34570 | -104.91287 | 8054 ft | 97 kts | 150° |
| 2026-05-07 03:02 | 40.34032 | -104.90736 | 8119 ft | 99 kts | 148° |
| 2026-05-07 03:02 | 40.33485 | -104.90177 | 8189 ft | 100 kts | 150° |
| 2026-05-07 03:03 | 40.32928 | -104.89637 | 8268 ft | 100 kts | 152° |
| 2026-05-07 03:03 | 40.32360 | -104.89110 | 8346 ft | 99 kts | 152° |
| 2026-05-07 03:03 | 40.31785 | -104.88594 | 8414 ft | 101 kts | 153° |
| 2026-05-07 03:03 | 40.31206 | -104.88077 | 8478 ft | 100 kts | 154° |
| 2026-05-07 03:04 | 40.30627 | -104.87568 | 8530 ft | 101 kts | 154° |
| 2026-05-07 03:04 | 40.30029 | -104.87056 | 8540 ft | 106 kts | 156° |
| 2026-05-07 03:04 | 40.29379 | -104.86548 | 8543 ft | 110 kts | 158° |
| 2026-05-07 03:04 | 40.28727 | -104.86017 | 8580 ft | 110 kts | 155° |
| 2026-05-07 03:05 | 40.28285 | -104.85674 | 8575 ft | 113 kts | 158° |
| 2026-05-07 03:05 | 40.27620 | -104.85123 | 8605 ft | 114 kts | 152° |
| 2026-05-07 03:05 | 40.26959 | -104.84517 | 8575 ft | 119 kts | 153° |
| 2026-05-07 03:05 | 40.26027 | -104.83735 | 8556 ft | 120 kts | 157° |
| 2026-05-07 03:06 | 40.25316 | -104.83162 | 8558 ft | 120 kts | 155° |
| 2026-05-07 03:06 | 40.24611 | -104.82572 | 8556 ft | 120 kts | 154° |
| 2026-05-07 03:06 | 40.24135 | -104.82177 | 8561 ft | 120 kts | 154° |
| 2026-05-07 03:06 | 40.23436 | -104.81576 | 8561 ft | 121 kts | 153° |
| 2026-05-07 03:07 | 40.22751 | -104.80945 | 8578 ft | 121 kts | 150° |
| 2026-05-07 03:07 | 40.22076 | -104.80307 | 8574 ft | 121 kts | 152° |
| 2026-05-07 03:07 | 40.21372 | -104.79674 | 8573 ft | 121 kts | 152° |
| 2026-05-07 03:07 | 40.20676 | -104.79056 | 8583 ft | 121 kts | 152° |
| 2026-05-07 03:08 | 40.19980 | -104.78437 | 8576 ft | 121 kts | 152° |
| 2026-05-07 03:08 | 40.19303 | -104.77812 | 8591 ft | 120 kts | 151° |
| 2026-05-07 03:08 | 40.18620 | -104.77162 | 8587 ft | 121 kts | 150° |
| 2026-05-07 03:08 | 40.17954 | -104.76497 | 8594 ft | 120 kts | 148° |
| 2026-05-07 03:09 | 40.17306 | -104.75848 | 8604 ft | 119 kts | 149° |
| 2026-05-07 03:09 | 40.16634 | -104.75217 | 8593 ft | 118 kts | 152° |
| 2026-05-07 03:09 | 40.15936 | -104.74655 | 8583 ft | 118 kts | 155° |
| 2026-05-07 03:09 | 40.15233 | -104.74118 | 8580 ft | 117 kts | 158° |
| 2026-05-07 03:10 | 40.14519 | -104.73618 | 8557 ft | 117 kts | 158° |
| 2026-05-07 03:10 | 40.13810 | -104.73100 | 8537 ft | 117 kts | 155° |
| 2026-05-07 03:10 | 40.13122 | -104.72524 | 8529 ft | 117 kts | 152° |
| 2026-05-07 03:10 | 40.12447 | -104.71932 | 8511 ft | 117 kts | 152° |
| 2026-05-07 03:11 | 40.11768 | -104.71345 | 8463 ft | 118 kts | 153° |
| 2026-05-07 03:11 | 40.11075 | -104.70782 | 8429 ft | 117 kts | 156° |
| 2026-05-07 03:11 | 40.10378 | -104.70241 | 8430 ft | 115 kts | 156° |
| 2026-05-07 03:11 | 40.09679 | -104.69732 | 8404 ft | 116 kts | 158° |
| 2026-05-07 03:12 | 40.08971 | -104.69240 | 8394 ft | 115 kts | 159° |
| 2026-05-07 03:12 | 40.08276 | -104.68762 | 8373 ft | 113 kts | 159° |
| 2026-05-07 03:12 | 40.07576 | -104.68268 | 8314 ft | 114 kts | 158° |
| 2026-05-07 03:12 | 40.06891 | -104.67760 | 8193 ft | 113 kts | 156° |
| 2026-05-07 03:13 | 40.06207 | -104.67274 | 8115 ft | 112 kts | 160° |
| 2026-05-07 03:13 | 40.05495 | -104.66865 | 8031 ft | 111 kts | 166° |
| 2026-05-07 03:13 | 40.04782 | -104.66543 | 7973 ft | 107 kts | 171° |
| 2026-05-07 03:13 | 40.04068 | -104.66267 | 7861 ft | 107 kts | 172° |
| 2026-05-07 03:14 | 40.03359 | -104.66007 | 7743 ft | 105 kts | 173° |
| 2026-05-07 03:14 | 40.02655 | -104.65801 | 7608 ft | 103 kts | 179° |
| 2026-05-07 03:14 | 40.01257 | -104.65738 | 7409 ft | 99 kts | 192° |
| 2026-05-07 03:15 | 40.00576 | -104.65813 | 7354 ft | 98 kts | 189° |
| 2026-05-07 03:15 | 39.99891 | -104.65839 | 7285 ft | 99 kts | 189° |
| 2026-05-07 03:15 | 39.99213 | -104.65836 | 7251 ft | 96 kts | 188° |
| 2026-05-07 03:15 | 39.98542 | -104.65861 | 7172 ft | 97 kts | 188° |
| 2026-05-07 03:16 | 39.97866 | -104.65843 | 7120 ft | 97 kts | 186° |
| 2026-05-07 03:16 | 39.97196 | -104.65848 | 7085 ft | 94 kts | 187° |
| 2026-05-07 03:16 | 39.96556 | -104.65883 | 7071 ft | 90 kts | 187° |
| 2026-05-07 03:16 | 39.95936 | -104.65878 | 7065 ft | 88 kts | 186° |
| 2026-05-07 03:17 | 39.95326 | -104.65875 | 7054 ft | 87 kts | 187° |
| 2026-05-07 03:17 | 39.94716 | -104.65891 | 7024 ft | 89 kts | 188° |
| 2026-05-07 03:17 | 39.94095 | -104.65924 | 6973 ft | 90 kts | 188° |
| 2026-05-07 03:17 | 39.93470 | -104.65930 | 6948 ft | 89 kts | 186° |
| 2026-05-07 03:18 | 39.92870 | -104.65903 | 6853 ft | 83 kts | 185° |
| 2026-05-07 03:18 | 39.92309 | -104.65919 | 6752 ft | 79 kts | 187° |
| 2026-05-07 03:18 | 39.91765 | -104.65930 | 6597 ft | 76 kts | 187° |
| 2026-05-07 03:18 | 39.91245 | -104.65950 | 6440 ft | 74 kts | 186° |
| 2026-05-07 03:19 | 39.90721 | -104.65953 | 6278 ft | 78 kts | 183° |
| 2026-05-07 03:19 | 39.90176 | -104.65966 | 6138 ft | 77 kts | 183° |
| 2026-05-07 03:19 | 39.89656 | -104.65959 | 6018 ft | 73 kts | 183° |
| 2026-05-07 03:19 | 39.89178 | -104.65975 | 5892 ft | 65 kts | 182° |
| 2026-05-07 03:20 | 39.88727 | -104.65973 | 5830 ft | 67 kts | 183° |
| 2026-05-07 03:20 | 39.88244 | -104.65980 | 5808 ft | 71 kts | 181° |
| 2026-05-07 03:20 | 39.87756 | -104.65990 | 5759 ft | 69 kts | 181° |
| 2026-05-07 03:20 | 39.87277 | -104.65994 | 5659 ft | 69 kts | 182° |
| 2026-05-07 03:21 | 39.86791 | -104.66003 | 5563 ft | 70 kts | 180° |
| 2026-05-07 03:21 | 39.86325 | -104.66007 | 5453 ft | 64 kts | 182° |
| 2026-05-07 03:21 | 39.85901 | -104.66015 | 5366 ft | 52 kts | 181° |
| 2026-05-07 03:21 | 39.85614 | -104.66019 | 5361 ft | 33 kts | 180° |
| 2026-05-07 03:22 | 39.85399 | -104.66023 | 5358 ft | 31 kts | 181° |
| 2026-05-07 03:22 | 39.85184 | -104.66024 | 5357 ft | 31 kts | 180° |
| 2026-05-07 03:22 | 39.85101 | -104.66074 | 5357 ft | 15 kts | 355° |
| 2026-05-07 03:22 | 39.85224 | -104.66105 | 5359 ft | 16 kts | 338° |
| 2026-05-07 03:23 | 39.85289 | -104.66151 | 5360 ft | 0 kts | 330° |
| 2026-05-07 03:24 | 39.85293 | -104.66171 | 5360 ft | 6 kts | 266° |
| 2026-05-07 03:24 | 39.85262 | -104.66235 | 5360 ft | 12 kts | 192° |
| 2026-05-07 03:25 | 39.85167 | -104.66238 | 5360 ft | 15 kts | 180° |
| 2026-05-07 03:25 | 39.85069 | -104.66239 | 5360 ft | 13 kts | 181° |
| 2026-05-07 03:25 | 39.84981 | -104.66239 | 5360 ft | 12 kts | 180° |
| 2026-05-07 03:25 | 39.84903 | -104.66241 | 5360 ft | 11 kts | 180° |
| 2026-05-07 03:26 | 39.84820 | -104.66242 | 5360 ft | 13 kts | 180° |
| 2026-05-07 03:26 | 39.84726 | -104.66243 | 5360 ft | 14 kts | 180° |
| 2026-05-07 03:26 | 39.84620 | -104.66244 | 5360 ft | 16 kts | 181° |
| 2026-05-07 03:26 | 39.84504 | -104.66245 | 5360 ft | 17 kts | 181° |
| 2026-05-07 03:27 | 39.84381 | -104.66246 | 5360 ft | 18 kts | 182° |
| 2026-05-07 03:27 | 39.84251 | -104.66248 | 5360 ft | 19 kts | 180° |
| 2026-05-07 03:27 | 39.84114 | -104.66249 | 5359 ft | 20 kts | 180° |
| 2026-05-07 03:27 | 39.84015 | -104.66270 | 5359 ft | 12 kts | 251° |
| 2026-05-07 03:28 | 39.83978 | -104.66367 | 5359 ft | 14 kts | 190° |
| 2026-05-07 03:28 | 39.83907 | -104.66434 | 5359 ft | 12 kts | 187° |
| 2026-05-07 03:28 | 39.83895 | -104.66422 | 5359 ft | 0 kts | 92° |